To NAV CANADA Home Page Login to a new session Search on AWWS site Feedback and Comments Disclaimer Vers la page française équivalente Tips FAQ What's new on the site To the Forecasts and Observations / NOTAM section To "File a Flight Plan" website Publications and other links Update of the User's profile FIC Telephone Numbers My Weather Data Folder Route Weather Data Regional Weather Data Local Weather Data To the Forecasts and Observations / NOTAM section
Request Generated 10/17/2017 at 01:50:27 UTC . Weather information available at that time is displayed.

METAR/TAF

FORT CHIPEWYAN/AB    (show WxCam)

SPECI CYPY 170121Z AUTO 10007KT 1 1/4SM BR OVC002 02/02 A2957 RMK
SLP030=
SPECI CYPY 170119Z AUTO 09004KT 2 1/4SM BR OVC002 02/02 A2957 RMK
SLP030=
SPECI CYPY 170117Z AUTO 10005KT 4SM BR OVC002 02/02 A2957 RMK SLP030=
METAR CYPY 170100Z AUTO 10005KT 9SM OVC002 02/02 A2957 RMK SLP028=
SPECI CYPY 170058Z AUTO 10004KT 6SM BR OVC002 02/02 A2957 RMK SLP028=
SPECI CYPY 170047Z AUTO 11005KT 5SM BR BKN002 BKN230 02/02 A2957 RMK
SLP029=
SPECI CYPY 170034Z AUTO 10003KT 9SM BKN002 BKN050 BKN240 03/03 A2958
RMK SLP030=
METAR CYPY 170000Z AUTO 11003KT 9SM BKN055 BKN240 03/03 A2959 RMK
SLP033=
METAR CYPY 162300Z AUTO 00000KT 9SM BKN065 04/04 A2960 RMK SLP037=

TAF AMD CYPY 170131Z 1701/1706 10005KT P6SM SCT002 BKN060 TEMPO
1701/1706 1SM BR OVC002
RMK FCST BASED ON AUTO OBS. NXT FCST WILL BE ISSUED AT 171145Z=
Your time UTC time
Weather data provided by Environment Canada and NAV CANADA